| time (UTC) | temp F | wind direction | speed MPH | gust MPH | rain 1hr in | rain 24hr in | rain mn in | humidity % | barometer mb |
| 20260503211135 | 85 | 183 | 1.0 | 4.0 | 0.00 | 0.00 | 0.00 | 48 | 1010.7 |
| 20260503210637 | 85 | 349 | 2.0 | 5.0 | 0.00 | 0.00 | 0.00 | 51 | 1010.8 |
| 20260503210133 | 84 | 340 | 2.0 | 5.0 | 0.00 | 0.00 | 0.00 | 47 | 1010.8 |
| 20260503205633 | 84 | 324 | 2.0 | 8.0 | 0.00 | 0.00 | 0.00 | 48 | 1010.9 |
| 20260503205140 | 84 | 37 | 2.0 | 8.0 | 0.00 | 0.00 | 0.00 | 48 | 1010.8 |
| 20260503204633 | 84 | 321 | 1.0 | 4.0 | 0.00 | 0.00 | 0.00 | 49 | 1011.0 |
| 20260503204133 | 84 | 311 | 1.0 | 4.0 | 0.00 | 0.00 | 0.00 | 50 | 1011.1 |
| 20260503203633 | 83 | 69 | 2.0 | 5.0 | 0.00 | 0.00 | 0.00 | 52 | 1011.2 |
| 20260503203127 | 83 | 62 | 2.0 | 5.0 | 0.00 | 0.00 | 0.00 | 50 | 1011.3 |
| 20260503202625 | 82 | 219 | 2.0 | 5.0 | 0.00 | 0.00 | 0.00 | 53 | 1011.3 |
| 20260503202621 | 82 | 29 | 2.0 | 5.0 | 0.00 | 0.00 | 0.00 | 52 | 1011.4 |
| 20260503201609 | 82 | 44 | 1.0 | 4.0 | 0.00 | 0.00 | 0.00 | 53 | 1011.4 |
| 20260503201335 | 81 | 15 | 2.0 | 4.0 | 0.00 | 0.00 | 0.00 | 52 | 1011.4 |
| 20260503200557 | 81 | 339 | 2.0 | 4.0 | 0.00 | 0.00 | 0.00 | 52 | 1011.5 |
| 20260503200056 | 81 | 331 | 2.0 | 4.0 | 0.00 | 0.00 | 0.00 | 54 | 1011.5 |
| 20260503195557 | 80 | 40 | 2.0 | 4.0 | 0.00 | 0.00 | 0.00 | 56 | 1011.5 |
| 20260503195057 | 80 | 320 | 1.0 | 4.0 | 0.00 | 0.00 | 0.00 | 56 | 1011.7 |
| 20260503194557 | 80 | 355 | 2.0 | 5.0 | 0.00 | 0.00 | 0.00 | 57 | 1011.6 |
| 20260503194057 | 79 | 313 | 1.0 | 5.0 | 0.00 | 0.00 | 0.00 | 58 | 1011.7 |
| 20260503193600 | 80 | 76 | 1.0 | 5.0 | 0.00 | 0.00 | 0.00 | 58 | 1011.7 |
| 20260503193055 | 79 | 298 | 1.0 | 5.0 | 0.00 | 0.00 | 0.00 | 61 | 1011.8 |
| 20260503192554 | 78 | 306 | 1.0 | 5.0 | 0.00 | 0.00 | 0.00 | 61 | 1011.9 |
| 20260503192053 | 78 | 25 | 1.0 | 4.0 | 0.00 | 0.00 | 0.00 | 59 | 1011.8 |
| 20260503191706 | 77 | 292 | 1.0 | 5.0 | 0.00 | 0.00 | 0.00 | 60 | 1012.0 |
| 20260503191552 | 78 | 310 | 1.0 | 4.0 | 0.00 | 0.00 | 0.00 | 61 | 1012.0 |
| 20260503191439 | 77 | 292 | 1.0 | 5.0 | 0.00 | 0.00 | 0.00 | 60 | 1012.0 |
| 20260503191338 | 77 | 178 | 2.0 | 5.0 | 0.00 | 0.00 | 0.00 | 62 | 1012.0 |
| 20260503190051 | 76 | 309 | 1.0 | 4.0 | 0.00 | 0.00 | 0.00 | 63 | 1012.1 |
| 20260503185549 | 76 | 355 | 2.0 | 4.0 | 0.00 | 0.00 | 0.00 | 60 | 1012.1 |
| 20260503185050 | 76 | 331 | 1.0 | 4.0 | 0.00 | 0.00 | 0.00 | 60 | 1012.2 |
| 20260503184548 | 75 | 303 | 1.0 | 5.0 | 0.00 | 0.00 | 0.00 | 63 | 1012.2 |
| 20260503184046 | 75 | 293 | 1.0 | 5.0 | 0.00 | 0.00 | 0.00 | 62 | 1012.2 |
| 20260503183545 | 75 | 184 | 1.0 | 4.0 | 0.00 | 0.00 | 0.00 | 63 | 1012.3 |
| 20260503183045 | 75 | 248 | 1.0 | 4.0 | 0.00 | 0.00 | 0.00 | 63 | 1012.2 |
| 20260503182544 | 74 | 308 | 1.0 | 4.0 | 0.00 | 0.00 | 0.00 | 64 | 1012.3 |
| 20260503182045 | 74 | 180 | 2.0 | 5.0 | 0.00 | 0.00 | 0.00 | 65 | 1012.4 |
| 20260503181546 | 73 | 19 | 1.0 | 5.0 | 0.00 | 0.00 | 0.00 | 65 | 1012.4 |
| 20260503181045 | 73 | 238 | 1.0 | 3.0 | 0.00 | 0.00 | 0.00 | 66 | 1012.5 |
| 20260503180545 | 72 | 302 | 1.0 | 4.0 | 0.00 | 0.00 | 0.00 | 67 | 1012.4 |
| 20260503180045 | 72 | 211 | 1.0 | 4.0 | 0.00 | 0.00 | 0.00 | 68 | 1012.4 |
| 20260503175551 | 70 | 26 | 2.0 | 8.0 | 0.00 | 0.01 | 0.00 | 70 | 1012.6 |
| 20260503175545 | 71 | 198 | 1.0 | 5.0 | 0.00 | 0.00 | 0.00 | 69 | 1012.5 |
| 20260503174544 | 70 | 48 | 2.0 | 8.0 | 0.00 | 0.01 | 0.00 | 68 | 1012.6 |
| 20260503174045 | 70 | 348 | 1.0 | 4.0 | 0.00 | 0.01 | 0.00 | 70 | 1012.7 |
| 20260503173545 | 70 | 306 | 1.0 | 4.0 | 0.00 | 0.01 | 0.00 | 71 | 1012.6 |
| 20260503173045 | 69 | 268 | 1.0 | 4.0 | 0.00 | 0.01 | 0.00 | 74 | 1012.6 |
| 20260503172545 | 68 | 331 | 1.0 | 4.0 | 0.00 | 0.01 | 0.00 | 75 | 1012.6 |
| 20260503172047 | 67 | 348 | 1.0 | 5.0 | 0.00 | 0.01 | 0.00 | 75 | 1012.6 |
| 20260503171544 | 67 | 331 | 1.0 | 5.0 | 0.00 | 0.01 | 0.00 | 76 | 1012.6 |
| 20260503171038 | 66 | 176 | 1.0 | 4.0 | 0.00 | 0.01 | 0.00 | 78 | 1012.6 |
| 20260503170536 | 65 | 344 | 1.0 | 5.0 | 0.00 | 0.01 | 0.00 | 78 | 1012.6 |
| 20260503150956 | 55 | 248 | 0.0 | 2.0 | 0.00 | 0.01 | 0.00 | 95 | 1013.0 |
| 20260503150948 | 54 | 248 | 0.0 | 3.0 | 0.00 | 0.01 | 0.00 | 95 | 1013.0 |
| 20260503131234 | 53 | 294 | 0.0 | 2.0 | 0.00 | 0.01 | 0.00 | 93 | 1012.6 |
| 20260503130733 | 53 | 294 | 0.0 | 0.0 | 0.00 | 0.01 | 0.00 | 93 | 1012.6 |
| 20260503130729 | 53 | 294 | 0.0 | 0.0 | 0.00 | 0.01 | 0.00 | 93 | 1012.6 |
| 20260503120219 | 54 | 294 | 0.0 | 0.0 | 0.00 | 0.01 | 0.00 | 93 | 1012.6 |
| 20260503110715 | 55 | 294 | 0.0 | 1.0 | 0.00 | 0.01 | 0.00 | 92 | 1012.7 |
| 20260503110215 | 55 | 294 | 0.0 | 2.0 | 0.00 | 0.01 | 0.00 | 92 | 1012.7 |
| 20260503100156 | 55 | 271 | 0.0 | 1.0 | 0.00 | 0.01 | 0.00 | 91 | 1012.7 |
| 20260503081451 | 57 | 327 | 0.0 | 1.0 | 0.00 | 0.01 | 0.00 | 89 | 1013.1 |
| 20260503080945 | 57 | 327 | 0.0 | 1.0 | 0.00 | 0.01 | 0.00 | 89 | 1013.1 |
| 20260503080439 | 57 | 327 | 0.0 | 1.0 | 0.00 | 0.01 | 0.00 | 88 | 1013.1 |
| 20260503072350 | 58 | 327 | 0.0 | 1.0 | 0.00 | 0.01 | 0.00 | 87 | 1013.4 |
| 20260503071847 | 58 | 327 | 0.0 | 0.0 | 0.00 | 0.01 | 0.00 | 87 | 1013.4 |
| 20260503071339 | 58 | 327 | 0.0 | 0.0 | 0.00 | 0.01 | 0.00 | 87 | 1013.6 |
| 20260503070833 | 58 | 327 | 0.0 | 0.0 | 0.00 | 0.01 | 0.00 | 87 | 1013.6 |
| 20260503070327 | 58 | 327 | 0.0 | 0.0 | 0.00 | 0.01 | 0.00 | 87 | 1013.7 |
| 20260503060222 | 59 | 327 | 0.0 | 1.0 | 0.00 | 0.01 | 0.01 | 85 | 1013.8 |
| 20260503054724 | 59 | 327 | 0.0 | 1.0 | 0.00 | 0.01 | 0.01 | 85 | 1013.6 |
| 20260503054222 | 59 | 328 | 0.0 | 3.0 | 0.00 | 0.01 | 0.01 | 85 | 1013.4 |
| 20260503053722 | 60 | 328 | 0.0 | 3.0 | 0.00 | 0.01 | 0.01 | 85 | 1013.5 |
| 20260503053222 | 60 | 265 | 0.0 | 1.0 | 0.00 | 0.01 | 0.01 | 85 | 1013.6 |
| 20260503052720 | 60 | 265 | 0.0 | 0.0 | 0.00 | 0.01 | 0.01 | 84 | 1013.6 |
| 20260503052219 | 60 | 265 | 0.0 | 2.0 | 0.00 | 0.01 | 0.01 | 85 | 1013.5 |
| 20260503051725 | 60 | 265 | 0.0 | 2.0 | 0.00 | 0.01 | 0.01 | 84 | 1013.6 |
| 20260503051720 | 60 | 265 | 0.0 | 2.0 | 0.00 | 0.01 | 0.01 | 84 | 1013.5 |
| 20260503050720 | 60 | 263 | 0.0 | 0.0 | 0.00 | 0.01 | 0.01 | 84 | 1013.6 |
| 20260503050217 | 60 | 263 | 0.0 | 0.0 | 0.00 | 0.01 | 0.01 | 84 | 1013.7 |
| 20260503045720 | 60 | 263 | 0.0 | 0.0 | 0.00 | 0.01 | 0.01 | 84 | 1013.8 |
| 20260503045218 | 60 | 263 | 0.0 | 1.0 | 0.00 | 0.01 | 0.01 | 83 | 1013.6 |
| 20260503044716 | 60 | 263 | 0.0 | 1.0 | 0.00 | 0.01 | 0.01 | 83 | 1013.8 |
| 20260503044218 | 60 | 263 | 0.0 | 1.0 | 0.00 | 0.01 | 0.01 | 83 | 1013.7 |
| 20260503044214 | 60 | 263 | 0.0 | 1.0 | 0.00 | 0.01 | 0.01 | 83 | 1013.8 |
| 20260503043208 | 60 | 263 | 0.0 | 2.0 | 0.00 | 0.01 | 0.01 | 83 | 1013.7 |
| 20260503042702 | 61 | 263 | 0.0 | 2.0 | 0.00 | 0.01 | 0.01 | 82 | 1013.7 |
| 20260503042156 | 61 | 263 | 0.0 | 2.0 | 0.00 | 0.01 | 0.01 | 82 | 1013.6 |
| 20260503041650 | 61 | 292 | 0.0 | 1.0 | 0.00 | 0.01 | 0.01 | 82 | 1013.6 |
| 20260503041146 | 61 | 292 | 0.0 | 1.0 | 0.00 | 0.01 | 0.01 | 82 | 1013.6 |
| 20260503040646 | 61 | 292 | 0.0 | 3.0 | 0.00 | 0.01 | 0.01 | 82 | 1013.5 |
| 20260503040147 | 61 | 292 | 0.0 | 3.0 | 0.00 | 0.01 | 0.01 | 82 | 1013.3 |
| 20260503035645 | 61 | 301 | 1.0 | 4.0 | 0.00 | 0.01 | 0.01 | 82 | 1013.0 |
| 20260503035146 | 61 | 240 | 1.0 | 4.0 | 0.00 | 0.01 | 0.01 | 82 | 1013.0 |
| 20260503034645 | 61 | 46 | 1.0 | 2.0 | 0.00 | 0.01 | 0.01 | 81 | 1013.0 |
| 20260503034150 | 61 | 315 | 0.0 | 1.0 | 0.00 | 0.01 | 0.01 | 81 | 1013.3 |
| 20260503034145 | 61 | 0 | 0.0 | 2.0 | 0.00 | 0.01 | 0.01 | 81 | 1013.1 |
| 20260503033146 | 61 | 315 | 0.0 | 2.0 | 0.00 | 0.01 | 0.01 | 81 | 1012.8 |
| 20260503032645 | 61 | 315 | 0.0 | 2.0 | 0.00 | 0.01 | 0.01 | 81 | 1013.0 |
| 20260503032148 | 61 | 13 | 0.0 | 1.0 | 0.00 | 0.01 | 0.01 | 81 | 1012.8 |
| 20260503031645 | 62 | 13 | 1.0 | 5.0 | 0.00 | 0.01 | 0.01 | 81 | 1012.7 |
| 20260503031146 | 62 | 13 | 1.0 | 5.0 | 0.00 | 0.01 | 0.01 | 81 | 1012.7 |
| 20260503030646 | 62 | 289 | 1.0 | 4.0 | 0.00 | 0.01 | 0.01 | 81 | 1012.5 |
| 20260503030145 | 62 | 278 | 1.0 | 4.0 | 0.00 | 0.01 | 0.01 | 81 | 1012.5 |
| 20260503025646 | 62 | 38 | 1.0 | 3.0 | 0.00 | 0.01 | 0.01 | 80 | 1012.8 |
| 20260503025144 | 62 | 79 | 1.0 | 3.0 | 0.00 | 0.01 | 0.01 | 80 | 1012.7 |
| 20260503024643 | 62 | 244 | 0.0 | 2.0 | 0.00 | 0.01 | 0.01 | 80 | 1012.5 |
| 20260503024143 | 62 | 238 | 1.0 | 3.0 | 0.00 | 0.01 | 0.01 | 80 | 1012.4 |
| 20260503024139 | 62 | 240 | 0.0 | 3.0 | 0.00 | 0.01 | 0.01 | 80 | 1012.4 |
| 20260503023139 | 62 | 277 | 0.0 | 3.0 | 0.00 | 0.01 | 0.01 | 79 | 1012.4 |
| 20260503022640 | 62 | 288 | 1.0 | 4.0 | 0.00 | 0.01 | 0.01 | 79 | 1012.4 |
| 20260503022139 | 62 | 295 | 1.0 | 4.0 | 0.00 | 0.01 | 0.01 | 78 | 1012.4 |
| 20260503021648 | 63 | 321 | 0.0 | 2.0 | 0.00 | 0.01 | 0.01 | 78 | 1012.6 |
| 20260503021639 | 63 | 311 | 0.0 | 3.0 | 0.00 | 0.01 | 0.01 | 78 | 1012.5 |
| 20260503020641 | 63 | 284 | 0.0 | 2.0 | 0.00 | 0.01 | 0.01 | 78 | 1012.7 |
| 20260503020137 | 63 | 54 | 0.0 | 2.0 | 0.00 | 0.01 | 0.01 | 78 | 1013.0 |
| 20260503015638 | 63 | 88 | 0.0 | 1.0 | 0.00 | 0.01 | 0.01 | 77 | 1013.3 |
| 20260503015137 | 63 | 88 | 0.0 | 1.0 | 0.00 | 0.01 | 0.01 | 78 | 1013.5 |
| 20260503014641 | 63 | 88 | 1.0 | 3.0 | 0.00 | 0.01 | 0.01 | 77 | 1013.7 |
| 20260503014635 | 63 | 88 | 0.0 | 1.0 | 0.00 | 0.01 | 0.01 | 78 | 1013.6 |
| 20260503013636 | 63 | 88 | 1.0 | 3.0 | 0.00 | 0.01 | 0.01 | 77 | 1014.0 |
| 20260503013135 | 63 | 78 | 0.0 | 3.0 | 0.00 | 0.01 | 0.01 | 77 | 1013.7 |
| 20260503012635 | 64 | 78 | 1.0 | 2.0 | 0.00 | 0.01 | 0.01 | 77 | 1013.9 |
| 20260503012137 | 64 | 84 | 2.0 | 3.0 | 0.00 | 0.01 | 0.01 | 76 | 1014.1 |
| 20260503012133 | 64 | 78 | 1.0 | 3.0 | 0.00 | 0.01 | 0.01 | 77 | 1014.1 |
| 20260503011125 | 64 | 67 | 1.0 | 2.0 | 0.00 | 0.01 | 0.01 | 76 | 1014.0 |
| 20260503010619 | 65 | 56 | 1.0 | 2.0 | 0.00 | 0.01 | 0.01 | 75 | 1013.7 |
| 20260503010113 | 65 | 56 | 1.0 | 2.0 | 0.00 | 0.01 | 0.01 | 75 | 1013.6 |
| 20260503010109 | 65 | 55 | 1.0 | 2.0 | 0.00 | 0.01 | 0.01 | 74 | 1013.6 |
| 20260503005100 | 65 | 42 | 1.0 | 2.0 | 0.00 | 0.01 | 0.01 | 74 | 1013.5 |
| 20260503004555 | 66 | 38 | 1.0 | 2.0 | 0.00 | 0.01 | 0.01 | 72 | 1013.4 |
| 20260503004551 | 66 | 5 | 1.0 | 3.0 | 0.00 | 0.01 | 0.01 | 72 | 1013.3 |
| 20260503003543 | 66 | 355 | 1.0 | 3.0 | 0.00 | 0.01 | 0.01 | 72 | 1013.3 |
| 20260503003037 | 66 | 54 | 1.0 | 4.0 | 0.00 | 0.01 | 0.01 | 72 | 1013.2 |
| 20260503002530 | 66 | 60 | 1.0 | 4.0 | 0.00 | 0.01 | 0.01 | 72 | 1013.3 |
| 20260503002526 | 66 | 28 | 1.0 | 3.0 | 0.00 | 0.01 | 0.01 | 73 | 1013.2 |
| 20260503001519 | 66 | 61 | 1.0 | 4.0 | 0.00 | 0.01 | 0.01 | 72 | 1013.2 |
| 20260503001012 | 66 | 61 | 1.0 | 4.0 | 0.00 | 0.01 | 0.01 | 72 | 1013.0 |
| 20260503000506 | 65 | 287 | 1.0 | 3.0 | 0.00 | 0.01 | 0.01 | 71 | 1013.0 |
| 20260503000000 | 66 | 225 | 0.0 | 3.0 | 0.00 | 0.01 | 0.01 | 72 | 1013.1 |
| 20260502235455 | 66 | 258 | 0.0 | 3.0 | 0.00 | 0.01 | 0.01 | 71 | 1013.1 |
| 20260502235318 | 66 | 63 | 1.0 | 4.0 | 0.00 | 0.01 | 0.01 | 72 | 1013.1 |
| 20260502235212 | 67 | 59 | 1.0 | 4.0 | 0.00 | 0.01 | 0.01 | 71 | 1013.2 |
| 20260502234819 | 66 | 288 | 1.0 | 4.0 | 0.00 | 0.01 | 0.01 | 70 | 1013.2 |
| 20260502233431 | 67 | 348 | 1.0 | 4.0 | 0.00 | 0.01 | 0.01 | 69 | 1013.1 |
| 20260502232925 | 66 | 55 | 2.0 | 4.0 | 0.00 | 0.01 | 0.01 | 69 | 1013.1 |
| 20260502232749 | 66 | 192 | 1.0 | 3.0 | 0.00 | 0.01 | 0.01 | 69 | 1013.2 |
| 20260502232646 | 66 | 5 | 1.0 | 8.0 | 0.00 | 0.01 | 0.01 | 71 | 1013.4 |
| 20260502231407 | 66 | 272 | 2.0 | 8.0 | 0.00 | 0.01 | 0.01 | 71 | 1013.5 |
| 20260502231229 | 66 | 65 | 2.0 | 5.0 | 0.00 | 0.01 | 0.01 | 70 | 1013.6 |
| 20260502231126 | 66 | 302 | 1.0 | 4.0 | 0.00 | 0.01 | 0.01 | 72 | 1013.8 |
| 20260502230730 | 66 | 53 | 1.0 | 4.0 | 0.00 | 0.01 | 0.01 | 70 | 1013.8 |
| 20260502225343 | 65 | 55 | 2.0 | 5.0 | 0.00 | 0.01 | 0.01 | 72 | 1013.8 |
| 20260502224837 | 65 | 28 | 1.0 | 5.0 | 0.00 | 0.01 | 0.01 | 72 | 1013.9 |
| 20260502224331 | 65 | 0 | 2.0 | 5.0 | 0.00 | 0.01 | 0.01 | 71 | 1014.1 |
| 20260502223825 | 65 | 350 | 2.0 | 4.0 | 0.00 | 0.01 | 0.01 | 72 | 1014.1 |
| 20260502223319 | 65 | 335 | 1.0 | 4.0 | 0.00 | 0.01 | 0.01 | 72 | 1014.3 |
| 20260502222813 | 65 | 65 | 1.0 | 4.0 | 0.00 | 0.01 | 0.01 | 73 | 1014.4 |
| 20260502222308 | 64 | 19 | 1.0 | 4.0 | 0.00 | 0.01 | 0.01 | 74 | 1014.4 |
| 20260502221801 | 64 | 259 | 1.0 | 5.0 | 0.00 | 0.01 | 0.01 | 74 | 1014.4 |
| 20260502221256 | 64 | 257 | 1.0 | 5.0 | 0.00 | 0.01 | 0.01 | 73 | 1014.5 |
| 20260502220749 | 64 | 36 | 1.0 | 4.0 | 0.00 | 0.01 | 0.01 | 74 | 1014.6 |
| 20260502220243 | 64 | 38 | 1.0 | 4.0 | 0.00 | 0.01 | 0.01 | 73 | 1014.6 |
| 20260502215737 | 64 | 289 | 1.0 | 5.0 | 0.00 | 0.01 | 0.01 | 74 | 1014.5 |
| 20260502215230 | 64 | 49 | 1.0 | 5.0 | 0.00 | 0.01 | 0.01 | 73 | 1014.5 |
| 20260502214735 | 64 | 314 | 1.0 | 4.0 | 0.00 | 0.01 | 0.01 | 73 | 1014.6 |
| 20260502214731 | 64 | 227 | 1.0 | 4.0 | 0.00 | 0.01 | 0.01 | 72 | 1014.6 |
| 20260502213729 | 64 | 313 | 1.0 | 3.0 | 0.00 | 0.01 | 0.01 | 73 | 1014.6 |
| 20260502213233 | 64 | 71 | 1.0 | 5.0 | 0.00 | 0.01 | 0.01 | 73 | 1014.9 |
| 20260502213229 | 64 | 300 | 1.0 | 5.0 | 0.00 | 0.01 | 0.01 | 73 | 1014.7 |
| 20260502212224 | 63 | 63 | 2.0 | 4.0 | 0.00 | 0.01 | 0.01 | 74 | 1015.0 |
| 20260502211725 | 63 | 292 | 2.0 | 4.0 | 0.00 | 0.01 | 0.01 | 73 | 1014.9 |